Time;durP1;ratioP1;P1;durP2;ratioP2;P2;SDS_P1;SDS_P2;PMS_P1;PMS_P2;Temp;Humidity;BMP_temperature;BMP_pressure;BME280_temperature;BME280_humidity;BME280_pressure;Samples;Min_cycle;Max_cycle;Signal;HPM_P1;HPM_P2
2022/03/18 05:02:38;;;;;;;17.00;14.27;;;8.10;99.90;;;;;;4994081;28;20517;-65
2022/03/18 05:05:08;;;;;;;15.23;13.63;;;8.10;99.90;;;;;;4995233;28;20482;-65
2022/03/18 05:07:35;;;;;;;17.80;15.90;;;8.10;99.90;;;;;;4995265;28;20442;-65
2022/03/18 05:10:02;;;;;;;16.37;13.93;;;8.10;99.90;;;;;;4995170;28;20462;-65
2022/03/18 05:12:28;;;;;;;18.03;14.33;;;8.10;99.90;;;;;;4995551;28;20482;-65
2022/03/18 05:14:55;;;;;;;16.93;15.17;;;8.10;99.90;;;;;;4995757;28;20458;-64
2022/03/18 05:17:22;;;;;;;15.30;13.67;;;8.10;99.90;;;;;;4995649;28;20450;-65
2022/03/18 05:19:50;;;;;;;18.37;14.83;;;8.20;99.90;;;;;;4995060;28;20474;-64
2022/03/18 05:22:17;;;;;;;17.60;15.27;;;8.20;99.90;;;;;;4994931;28;20485;-65
2022/03/18 05:24:44;;;;;;;17.83;15.93;;;8.20;99.90;;;;;;4994729;28;20892;-64
2022/03/18 05:27:10;;;;;;;19.50;15.50;;;8.20;99.90;;;;;;4994516;28;20438;-63
2022/03/18 05:29:37;;;;;;;18.60;16.57;;;8.20;99.90;;;;;;4994797;28;21007;-63
2022/03/18 05:32:04;;;;;;;19.17;15.20;;;8.20;99.90;;;;;;4994763;28;20945;-63
2022/03/18 05:34:32;;;;;;;16.60;14.60;;;8.20;99.90;;;;;;4994983;28;20568;-64
2022/03/18 05:37:00;;;;;;;19.27;15.67;;;8.20;99.90;;;;;;4995078;28;20457;-63
2022/03/18 05:39:27;;;;;;;18.10;14.70;;;8.20;99.90;;;;;;4994674;28;20817;-64
2022/03/18 05:41:54;;;;;;;17.87;15.60;;;8.20;99.90;;;;;;4994547;28;20474;-63
2022/03/18 05:44:21;;;;;;;17.60;15.73;;;8.20;99.90;;;;;;4994825;28;20474;-64
2022/03/18 05:46:47;;;;;;;17.93;16.03;;;8.20;99.90;;;;;;4995071;28;20447;-63
2022/03/18 05:49:15;;;;;;;18.00;15.33;;;8.20;99.90;;;;;;4994895;28;20852;-65
2022/03/18 05:51:42;;;;;;;21.47;16.70;;;8.20;99.90;;;;;;4994329;28;20918;-65
2022/03/18 05:54:10;;;;;;;18.57;16.60;;;8.10;99.90;;;;;;4994246;28;20457;-64
2022/03/18 05:56:55;;;;;;;19.60;16.43;;;8.20;99.90;;;;;;4994427;28;20461;-65
2022/03/18 05:59:24;;;;;;;18.27;15.90;;;8.20;99.90;;;;;;4994458;28;20453;-64
2022/03/18 06:01:51;;;;;;;18.73;16.50;;;8.20;99.90;;;;;;4993997;28;20493;-63
2022/03/18 06:04:17;;;;;;;19.30;16.20;;;8.20;99.90;;;;;;4994747;28;20576;-66
2022/03/18 06:06:47;;;;;;;18.07;15.83;;;8.30;99.90;;;;;;4993850;28;20454;-64
2022/03/18 06:12:00;;;;;;;23.10;17.57;;;8.30;99.90;;;;;;4994330;28;20465;-64
2022/03/18 06:14:29;;;;;;;19.10;17.00;;;8.40;99.90;;;;;;4994283;28;20969;-65
2022/03/18 06:16:58;;;;;;;21.47;17.37;;;8.40;99.90;;;;;;4994418;28;20466;-64
2022/03/18 06:19:26;;;;;;;20.17;17.93;;;8.40;99.90;;;;;;4994354;28;20461;-64
2022/03/18 06:21:53;;;;;;;20.40;17.23;;;8.40;99.90;;;;;;4993929;28;20992;-65
2022/03/18 06:24:22;;;;;;;25.33;19.10;;;8.40;99.90;;;;;;4994370;28;20509;-64
2022/03/18 06:26:50;;;;;;;22.27;18.23;;;8.40;99.90;;;;;;4994631;28;20458;-65
2022/03/18 06:29:16;;;;;;;22.07;17.77;;;8.40;99.90;;;;;;4994253;28;20968;-65
2022/03/18 06:31:43;;;;;;;22.37;19.13;;;8.50;99.90;;;;;;4993931;28;20980;-64
2022/03/18 06:34:12;;;;;;;24.00;18.77;;;8.60;99.90;;;;;;4993612;28;20798;-64
2022/03/18 06:36:39;;;;;;;23.17;20.10;;;8.60;99.90;;;;;;4994784;28;20486;-66
2022/03/18 06:39:07;;;;;;;23.00;18.63;;;8.60;99.90;;;;;;4994566;28;20453;-66
2022/03/18 06:41:36;;;;;;;22.53;19.10;;;8.60;99.90;;;;;;4994292;28;20478;-63
2022/03/18 06:44:04;;;;;;;23.03;19.47;;;8.60;99.90;;;;;;4993906;28;21009;-64
2022/03/18 06:46:30;;;;;;;27.67;19.57;;;8.60;99.90;;;;;;4994103;28;20941;-64
2022/03/18 06:48:57;;;;;;;21.80;19.17;;;8.70;99.90;;;;;;4994449;28;20465;-65
2022/03/18 06:51:24;;;;;;;22.83;20.43;;;8.80;99.90;;;;;;4996503;28;20474;-64
2022/03/18 06:53:51;;;;;;;23.63;19.80;;;8.80;99.90;;;;;;4998090;28;20457;-66
2022/03/18 06:56:17;;;;;;;26.03;22.00;;;8.80;99.90;;;;;;4998028;28;20522;-65
2022/03/18 06:58:45;;;;;;;25.10;20.80;;;8.90;99.90;;;;;;4998235;28;20457;-66
2022/03/18 07:01:13;;;;;;;22.33;19.40;;;8.90;99.90;;;;;;4997882;28;20867;-63
2022/03/18 07:03:40;;;;;;;23.17;20.70;;;8.90;99.90;;;;;;4998008;28;20457;-65
2022/03/18 07:06:07;;;;;;;25.83;22.13;;;9.00;99.90;;;;;;4997854;28;20478;-65
2022/03/18 07:08:33;;;;;;;28.27;23.97;;;9.00;99.90;;;;;;4997713;28;20461;-65
2022/03/18 07:11:00;;;;;;;30.67;24.60;;;9.00;99.90;;;;;;4997697;28;20565;-64
2022/03/18 07:13:27;;;;;;;33.10;26.00;;;8.90;99.90;;;;;;4997666;28;20460;-66
2022/03/18 07:15:56;;;;;;;31.80;25.87;;;8.90;99.90;;;;;;4997447;28;20478;-64
2022/03/18 07:18:21;;;;;;;31.13;25.40;;;8.90;99.90;;;;;;4997318;28;20504;-65
2022/03/18 07:20:48;;;;;;;30.17;25.97;;;9.00;99.90;;;;;;4997892;28;20478;-64
2022/03/18 07:23:16;;;;;;;34.70;27.00;;;8.90;99.90;;;;;;4997051;28;20678;-65
2022/03/18 07:25:45;;;;;;;34.70;27.50;;;8.90;99.90;;;;;;4997088;28;20483;-67
2022/03/18 07:28:14;;;;;;;35.77;28.20;;;8.90;99.90;;;;;;4997336;28;20457;-66
2022/03/18 07:30:42;;;;;;;33.03;28.13;;;8.90;99.90;;;;;;4997306;28;20593;-64
2022/03/18 07:33:11;;;;;;;36.83;29.30;;;8.80;99.90;;;;;;4997253;28;20457;-63
2022/03/18 07:35:38;;;;;;;39.10;28.50;;;8.80;99.90;;;;;;4996861;28;20954;-64
2022/03/18 07:38:08;;;;;;;36.57;29.43;;;8.90;99.90;;;;;;4996851;28;20465;-65
2022/03/18 07:40:36;;;;;;;34.90;29.17;;;8.90;99.90;;;;;;4997080;28;20552;-65
2022/03/18 07:43:03;;;;;;;38.07;30.63;;;9.00;99.90;;;;;;4997023;28;20457;-65
2022/03/18 07:45:31;;;;;;;37.40;30.07;;;9.00;99.90;;;;;;4996742;28;20528;-63
2022/03/18 07:48:01;;;;;;;44.37;31.47;;;8.90;99.90;;;;;;4996990;28;20469;-64
2022/03/18 07:50:30;;;;;;;37.40;30.20;;;9.00;99.90;;;;;;4996963;28;20449;-63
2022/03/18 07:53:00;;;;;;;33.60;27.97;;;9.10;99.90;;;;;;4996897;28;20454;-63
2022/03/18 07:55:28;;;;;;;39.20;30.90;;;9.10;99.90;;;;;;4996499;28;20794;-63
2022/03/18 07:57:56;;;;;;;39.50;31.33;;;9.00;99.90;;;;;;4996602;28;20476;-65
2022/03/18 08:00:23;;;;;;;38.07;30.40;;;9.00;99.90;;;;;;4996238;28;20458;-64
2022/03/18 08:02:52;;;;;;;38.43;31.77;;;9.10;99.90;;;;;;4996029;28;20439;-65
2022/03/18 08:05:20;;;;;;;35.43;30.27;;;9.20;99.90;;;;;;4996317;28;20532;-65
2022/03/18 08:07:48;;;;;;;37.00;29.67;;;9.30;99.90;;;;;;4996292;28;20504;-64
2022/03/18 08:10:17;;;;;;;36.80;29.40;;;9.30;99.90;;;;;;4996285;28;20824;-64
2022/03/18 08:12:45;;;;;;;39.73;29.80;;;9.20;99.90;;;;;;4997762;28;20506;-65
2022/03/18 08:15:13;;;;;;;35.83;30.80;;;9.30;99.90;;;;;;4997659;28;20466;-64
2022/03/18 08:17:41;;;;;;;34.50;29.20;;;9.30;99.90;;;;;;4997629;28;20461;-65
2022/03/18 08:20:09;;;;;;;36.33;30.60;;;9.20;99.90;;;;;;4996126;28;20481;-65
2022/03/18 08:22:37;;;;;;;35.27;29.60;;;9.30;99.90;;;;;;4996040;28;20465;-65
2022/03/18 08:25:06;;;;;;;32.50;27.77;;;9.50;99.90;;;;;;4995568;28;21001;-65
2022/03/18 08:27:33;;;;;;;32.57;28.10;;;9.60;99.90;;;;;;4996151;28;20887;-64
2022/03/18 08:30:00;;;;;;;38.67;28.30;;;9.70;99.90;;;;;;4996196;28;20480;-64
2022/03/18 08:32:28;;;;;;;36.80;28.70;;;9.90;99.90;;;;;;4996049;28;20470;-63
2022/03/18 08:34:55;;;;;;;35.10;28.63;;;10.10;99.90;;;;;;4996183;28;20532;-65
2022/03/18 08:40:05;;;;;;;31.30;27.10;;;10.60;99.90;;;;;;4994511;28;20518;-64
2022/03/18 08:42:32;;;;;;;34.20;28.30;;;10.90;99.90;;;;;;4995529;28;20885;-64
2022/03/18 08:44:59;;;;;;;35.83;27.00;;;11.20;99.90;;;;;;4995573;28;20478;-64
2022/03/18 08:47:26;;;;;;;29.67;26.47;;;11.40;99.90;;;;;;4995714;28;20458;-64
2022/03/18 08:49:52;;;;;;;29.53;26.20;;;11.50;99.90;;;;;;4995530;28;20453;-64
2022/03/18 08:52:19;;;;;;;29.40;25.60;;;11.50;99.90;;;;;;4995530;28;20484;-65
2022/03/18 08:54:46;;;;;;;29.87;25.70;;;11.60;99.90;;;;;;4995449;28;20476;-63
2022/03/18 08:57:14;;;;;;;30.13;25.97;;;11.90;99.90;;;;;;4995229;28;20512;-64
2022/03/18 08:59:41;;;;;;;29.30;25.63;;;12.10;99.90;;;;;;4995191;28;20461;-63
2022/03/18 09:02:09;;;;;;;29.07;25.97;;;12.00;99.90;;;;;;4994961;28;20589;-64
2022/03/18 09:04:36;;;;;;;30.83;24.83;;;11.90;99.90;;;;;;4995186;28;20453;-64
2022/03/18 09:07:03;;;;;;;28.40;25.37;;;11.80;99.90;;;;;;4995219;28;20512;-64
2022/03/18 09:09:30;;;;;;;29.93;24.97;;;11.90;99.90;;;;;;4995449;28;20505;-63
2022/03/18 09:11:56;;;;;;;29.93;25.00;;;11.70;99.90;;;;;;4994904;28;21011;-63
2022/03/18 09:14:24;;;;;;;29.60;25.23;;;11.70;99.90;;;;;;4994405;28;20454;-64
2022/03/18 09:16:51;;;;;;;28.53;25.17;;;11.70;99.90;;;;;;4995099;28;20461;-63
2022/03/18 09:19:18;;;;;;;27.83;23.80;;;11.60;99.90;;;;;;4994959;28;20453;-63
2022/03/18 09:21:45;;;;;;;28.37;24.30;;;11.50;99.90;;;;;;4995624;28;20872;-63
2022/03/18 09:24:11;;;;;;;28.30;23.80;;;11.70;99.90;;;;;;4994909;28;20500;-64
2022/03/18 09:26:38;;;;;;;28.63;25.47;;;11.70;99.90;;;;;;4994742;28;20509;-64
2022/03/18 09:29:05;;;;;;;29.87;25.50;;;11.70;99.90;;;;;;4994891;28;20530;-63
2022/03/18 09:31:33;;;;;;;30.57;25.17;;;11.70;99.90;;;;;;4994957;28;20481;-64
2022/03/18 09:34:00;;;;;;;35.33;25.33;;;11.70;99.90;;;;;;4994871;28;20481;-63
2022/03/18 09:36:26;;;;;;;28.30;24.67;;;12.10;99.90;;;;;;4994714;28;20450;-64
2022/03/18 09:38:54;;;;;;;28.10;24.53;;;12.70;99.90;;;;;;4994790;28;20454;-64
2022/03/18 09:41:21;;;;;;;31.17;26.10;;;13.10;99.90;;;;;;4994026;28;20972;-64
2022/03/18 09:43:47;;;;;;;29.60;26.30;;;13.50;99.90;;;;;;4994374;28;20457;-64
2022/03/18 09:46:16;;;;;;;29.83;25.50;;;13.80;99.90;;;;;;4994483;28;20505;-64
2022/03/18 09:48:45;;;;;;;32.00;28.03;;;14.00;99.90;;;;;;4994723;28;20477;-65
2022/03/18 09:51:12;;;;;;;37.10;29.67;;;14.00;99.90;;;;;;4994698;28;20490;-63
2022/03/18 09:53:38;;;;;;;31.73;28.10;;;13.80;99.90;;;;;;4994365;28;20964;-64
2022/03/18 09:56:05;;;;;;;33.10;27.80;;;13.60;99.90;;;;;;4994365;28;20973;-64
2022/03/18 09:58:32;;;;;;;31.23;27.77;;;13.50;99.90;;;;;;4994434;28;20509;-64
2022/03/18 10:00:59;;;;;;;30.07;26.93;;;13.50;99.90;;;;;;4994395;28;20482;-64
2022/03/18 10:03:37;;;;;;;34.33;29.17;;;13.50;99.90;;;;;;4994637;28;20516;-65
2022/03/18 10:06:06;;;;;;;31.50;27.23;;;13.40;99.90;;;;;;4994869;28;20482;-64
2022/03/18 10:08:48;;;;;;;31.80;28.50;;;13.40;99.90;;;;;;4995279;28;20585;-64
2022/03/18 10:11:15;;;;;;;33.17;29.57;;;13.50;99.90;;;;;;4994496;28;20532;-64
2022/03/18 10:13:51;;;;;;;34.93;31.17;;;13.90;99.90;;;;;;4994516;28;20512;-63
2022/03/18 10:16:30;;;;;;;33.90;29.37;;;14.10;99.90;;;;;;4994478;28;20820;-63
2022/03/18 10:18:57;;;;;;;31.77;28.53;;;14.50;99.90;;;;;;4994467;28;20438;-63
2022/03/18 10:21:25;;;;;;;34.47;30.63;;;14.60;99.90;;;;;;4994294;28;20481;-65
2022/03/18 10:24:07;;;;;;;33.67;30.07;;;14.90;99.90;;;;;;4994994;28;20481;-64
2022/03/18 10:26:36;;;;;;;34.00;29.93;;;15.20;99.90;;;;;;4997824;28;20462;-64
2022/03/18 10:29:03;;;;;;;35.20;31.53;;;15.10;99.90;;;;;;4999272;28;20457;-63
2022/03/18 10:31:30;;;;;;;34.63;31.00;;;14.80;99.90;;;;;;4998509;28;20910;-63
2022/03/18 10:39:38;;;;;;;41.10;31.60;;;14.60;99.90;;;;;;4987517;28;20453;-64
2022/03/18 10:42:07;;;;;;;33.10;28.47;;;14.10;99.90;;;;;;4998009;28;20501;-64
2022/03/18 10:44:45;;;;;;;33.07;28.73;;;14.10;99.90;;;;;;4998395;28;20456;-64
2022/03/18 10:47:26;;;;;;;32.87;28.97;;;13.90;99.90;;;;;;4998519;28;20488;-64
2022/03/18 10:49:54;;;;;;;34.23;30.50;;;14.00;99.90;;;;;;4998000;28;20442;-63
2022/03/18 10:52:24;;;;;;;33.50;28.47;;;14.10;99.90;;;;;;4997363;28;21013;-64
2022/03/18 10:54:51;;;;;;;32.53;29.10;;;14.30;99.90;;;;;;4998338;28;20442;-64
2022/03/18 10:57:18;;;;;;;34.73;30.53;;;14.30;99.90;;;;;;4997696;28;20545;-64
2022/03/18 10:59:45;;;;;;;30.13;27.00;;;14.00;99.90;;;;;;4997472;28;20457;-64
2022/03/18 11:02:17;;;;;;;30.63;27.30;;;14.00;99.90;;;;;;4997338;28;20498;-64
2022/03/18 11:04:44;;;;;;;34.60;27.33;;;14.10;99.90;;;;;;4997558;28;20470;-64
2022/03/18 11:12:47;;;;;;;35.13;28.73;;;14.30;99.90;;;;;;4980635;28;21093;-64
2022/03/18 11:15:16;;;;;;;31.07;27.73;;;14.00;99.90;;;;;;4997328;28;20805;-64
2022/03/18 11:17:44;;;;;;;31.20;28.00;;;13.90;99.90;;;;;;4997557;28;20454;-65
2022/03/18 11:20:11;;;;;;;32.43;28.90;;;13.70;99.90;;;;;;4997265;28;20454;-63
2022/03/18 11:22:39;;;;;;;31.87;28.47;;;13.60;99.90;;;;;;4997203;28;20489;-63
2022/03/18 11:25:10;;;;;;;33.33;29.03;;;13.50;99.90;;;;;;4996806;28;20822;-63
2022/03/18 11:27:39;;;;;;;32.97;29.00;;;13.50;99.90;;;;;;4997159;28;20493;-63
2022/03/18 11:30:19;;;;;;;30.77;27.47;;;13.50;99.90;;;;;;4996969;28;20460;-63
2022/03/18 11:33:18;;;;;;;31.23;27.57;;;13.70;99.90;;;;;;4996964;28;20462;-63
2022/03/18 11:36:08;;;;;;;32.33;29.03;;;13.70;99.90;;;;;;4996628;28;20439;-63
2022/03/18 11:39:06;;;;;;;31.87;28.53;;;14.00;99.90;;;;;;4996653;28;20811;-63
2022/03/18 11:41:48;;;;;;;31.53;28.23;;;14.10;99.90;;;;;;4997127;28;20561;-64
2022/03/18 11:44:41;;;;;;;32.13;28.80;;;14.20;99.90;;;;;;5002512;28;20438;-63
2022/03/18 11:47:41;;;;;;;30.33;27.17;;;14.20;99.90;;;;;;4969989;28;20478;-63
2022/03/18 11:50:39;;;;;;;30.67;27.30;;;14.30;99.90;;;;;;4986322;28;20870;-63
2022/03/18 11:53:06;;;;;;;34.73;30.93;;;14.20;99.90;;;;;;4956366;28;20485;-64
2022/03/18 11:55:33;;;;;;;34.57;30.30;;;14.10;99.90;;;;;;4998421;28;20465;-63
2022/03/18 11:58:02;;;;;;;31.97;28.57;;;14.10;99.90;;;;;;4999399;28;20458;-63
2022/03/18 12:00:43;;;;;;;34.37;30.73;;;14.20;99.90;;;;;;4998755;28;20841;-63
2022/03/18 12:03:19;;;;;;;32.03;28.83;;;14.20;99.90;;;;;;4999349;28;20454;-63
2022/03/18 12:05:53;;;;;;;31.73;28.30;;;14.10;99.90;;;;;;4999750;28;20497;-65
2022/03/18 12:08:20;;;;;;;36.63;31.83;;;13.80;99.90;;;;;;5000065;28;20858;-63
2022/03/18 12:10:47;;;;;;;31.40;27.97;;;13.60;99.90;;;;;;4999334;28;20857;-63
2022/03/18 12:13:15;;;;;;;30.93;27.70;;;13.40;99.90;;;;;;4997740;28;20822;-64
2022/03/18 12:15:44;;;;;;;33.30;28.77;;;13.20;99.90;;;;;;4997951;28;20458;-63
2022/03/18 12:18:11;;;;;;;31.70;28.43;;;13.30;99.90;;;;;;4997873;28;20465;-63
2022/03/18 12:20:38;;;;;;;33.53;29.93;;;13.50;99.90;;;;;;4997760;28;20478;-63
2022/03/18 12:23:06;;;;;;;31.43;28.13;;;13.20;99.90;;;;;;4997081;28;20821;-63
2022/03/18 12:25:36;;;;;;;32.20;28.70;;;13.20;99.90;;;;;;4996722;28;20458;-64
2022/03/18 12:28:03;;;;;;;31.73;28.30;;;13.40;99.90;;;;;;4996948;28;20458;-65
2022/03/18 12:30:32;;;;;;;30.05;26.90;;;13.70;99.90;;;;;;4996007;28;20449;-63
2022/03/18 12:33:02;;;;;;;32.40;27.77;;;13.90;99.90;;;;;;4995981;28;20458;-65
2022/03/18 12:35:31;;;;;;;30.50;27.30;;;14.10;99.90;;;;;;4997093;28;20233;-65
2022/03/18 12:38:05;;;;;;;29.70;26.53;;;14.10;99.90;;;;;;4997311;28;20961;-64
2022/03/18 12:40:33;;;;;;;30.80;27.63;;;14.30;99.90;;;;;;4996393;28;20489;-63
2022/03/18 12:43:02;;;;;;;32.50;29.07;;;14.50;99.90;;;;;;4996306;28;20446;-63
2022/03/18 12:45:32;;;;;;;29.83;26.70;;;14.60;99.90;;;;;;4996456;28;20460;-64
2022/03/18 12:48:00;;;;;;;30.13;27.10;;;14.50;99.90;;;;;;4995207;28;20456;-64
2022/03/18 12:50:28;;;;;;;35.70;27.40;;;14.20;99.90;;;;;;4996120;28;20458;-63
2022/03/18 12:52:56;;;;;;;30.40;26.37;;;14.00;99.90;;;;;;4996193;28;20509;-63
2022/03/18 12:55:24;;;;;;;28.60;25.70;;;13.80;99.90;;;;;;4995863;28;20458;-63
2022/03/18 12:57:51;;;;;;;32.77;26.40;;;13.80;99.90;;;;;;4995888;28;20470;-63
2022/03/18 13:00:21;;;;;;;30.03;26.80;;;13.80;99.90;;;;;;4995736;28;20482;-63
2022/03/18 13:02:51;;;;;;;28.77;25.90;;;13.60;99.90;;;;;;4995161;28;20827;-63
2022/03/18 13:05:19;;;;;;;29.60;26.57;;;13.70;99.90;;;;;;4995317;28;20481;-64
2022/03/18 13:07:50;;;;;;;30.83;25.87;;;13.80;99.90;;;;;;4995280;28;20474;-64
2022/03/18 13:10:21;;;;;;;30.03;25.70;;;13.90;99.90;;;;;;4994940;28;20438;-63
2022/03/18 13:12:48;;;;;;;28.23;25.23;;;13.80;99.90;;;;;;4994724;28;20500;-64
2022/03/18 13:15:16;;;;;;;26.80;24.00;;;14.10;99.90;;;;;;4995270;28;20461;-63
2022/03/18 13:17:45;;;;;;;29.40;26.03;;;14.20;99.90;;;;;;4995039;28;20508;-65
2022/03/18 13:20:28;;;;;;;27.83;24.93;;;14.40;99.90;;;;;;4995026;28;20485;-67
2022/03/18 13:22:56;;;;;;;28.80;25.77;;;14.40;99.90;;;;;;4994880;28;20451;-65
2022/03/18 13:25:23;;;;;;;28.07;25.27;;;14.60;99.90;;;;;;4994945;28;20454;-63
2022/03/18 13:27:50;;;;;;;27.67;24.67;;;14.90;99.90;;;;;;4994749;28;20874;-63
2022/03/18 13:33:05;;;;;;;28.43;25.60;;;15.00;99.90;;;;;;4994693;28;20787;-62
2022/03/18 13:35:42;;;;;;;28.03;25.13;;;14.90;99.90;;;;;;4994868;28;20868;-65
2022/03/18 13:38:11;;;;;;;26.97;24.27;;;14.80;99.90;;;;;;4995646;28;20466;-63
2022/03/18 13:40:39;;;;;;;26.23;23.77;;;14.70;99.90;;;;;;4994682;28;20474;-64
2022/03/18 13:43:08;;;;;;;28.07;25.03;;;14.60;99.90;;;;;;4994571;28;20945;-63
2022/03/18 13:45:36;;;;;;;27.93;25.10;;;14.60;99.90;;;;;;4994635;28;20461;-63
2022/03/18 13:48:03;;;;;;;29.10;26.20;;;14.50;99.90;;;;;;4994519;28;20485;-63
2022/03/18 13:50:45;;;;;;;28.40;25.40;;;14.50;99.90;;;;;;4994400;28;20861;-63
2022/03/18 13:53:19;;;;;;;26.50;23.60;;;14.60;99.90;;;;;;4994669;28;20545;-63
2022/03/18 13:55:46;;;;;;;25.83;23.20;;;14.40;99.90;;;;;;4994494;28;20875;-63
2022/03/18 13:58:12;;;;;;;26.33;23.57;;;14.20;99.90;;;;;;4994602;28;20466;-63
2022/03/18 14:00:39;;;;;;;25.77;22.97;;;14.20;99.90;;;;;;4993956;28;20513;-63
2022/03/18 14:03:11;;;;;;;26.90;24.20;;;14.10;99.90;;;;;;4994001;28;20969;-65
2022/03/18 14:05:37;;;;;;;27.33;24.43;;;14.00;99.90;;;;;;4994535;28;20465;-63
2022/03/18 14:08:07;;;;;;;25.67;22.73;;;13.90;99.90;;;;;;4994378;28;20478;-64
2022/03/18 14:10:39;;;;;;;26.27;23.50;;;13.90;99.90;;;;;;4994460;28;20460;-65
2022/03/18 14:13:08;;;;;;;25.70;23.00;;;13.90;99.90;;;;;;4994194;28;20454;-65
2022/03/18 14:15:37;;;;;;;25.27;22.87;;;13.90;99.90;;;;;;4993704;28;20829;-65
2022/03/18 14:18:06;;;;;;;26.53;23.93;;;13.80;99.90;;;;;;4993777;28;20453;-64
2022/03/18 14:20:35;;;;;;;25.60;23.00;;;13.90;99.90;;;;;;4994132;28;20824;-64
2022/03/18 14:23:20;;;;;;;26.27;23.63;;;13.60;99.90;;;;;;4993995;28;20520;-64
2022/03/18 14:25:48;;;;;;;25.23;22.63;;;13.60;99.90;;;;;;4994404;28;20806;-64
2022/03/18 14:28:21;;;;;;;27.37;24.47;;;13.60;99.90;;;;;;4994135;28;20481;-64
2022/03/18 14:30:48;;;;;;;25.13;22.57;;;13.60;99.90;;;;;;4994208;28;20497;-64
2022/03/18 14:33:16;;;;;;;26.63;23.90;;;13.60;99.90;;;;;;4994058;28;20554;-65
2022/03/18 14:35:43;;;;;;;27.00;23.73;;;13.60;99.90;;;;;;4994052;28;20461;-65
2022/03/18 14:38:10;;;;;;;24.77;22.17;;;13.50;99.90;;;;;;4994151;28;20454;-65
2022/03/18 14:40:38;;;;;;;26.53;23.40;;;13.50;99.90;;;;;;4994471;28;20478;-64
2022/03/18 14:43:06;;;;;;;26.17;23.50;;;13.50;99.90;;;;;;4994111;28;20800;-64
2022/03/18 14:45:33;;;;;;;26.57;23.77;;;13.40;99.90;;;;;;4994219;28;20442;-64
2022/03/18 14:48:00;;;;;;;26.50;23.70;;;13.40;99.90;;;;;;4993998;28;20560;-64
2022/03/18 14:50:27;;;;;;;25.37;22.87;;;13.30;99.90;;;;;;4993652;28;20450;-64
2022/03/18 14:52:56;;;;;;;26.97;24.30;;;13.40;99.90;;;;;;4993322;28;20530;-64
2022/03/18 14:58:08;;;;;;;28.60;25.60;;;13.30;99.90;;;;;;4993908;28;20507;-64
2022/03/18 15:00:35;;;;;;;28.40;25.37;;;13.30;99.90;;;;;;4993477;28;20497;-64
2022/03/18 15:03:02;;;;;;;27.30;24.57;;;13.30;99.90;;;;;;4993679;28;20438;-64
2022/03/18 15:05:29;;;;;;;27.27;24.43;;;13.20;99.90;;;;;;4993432;28;20969;-64
2022/03/18 15:07:56;;;;;;;28.00;25.10;;;13.30;99.90;;;;;;4993320;28;20891;-64
2022/03/18 15:10:23;;;;;;;30.57;24.80;;;13.40;99.90;;;;;;4993866;28;20868;-64
2022/03/18 15:12:50;;;;;;;30.57;25.03;;;13.30;99.90;;;;;;4996498;28;20501;-65
2022/03/18 15:15:18;;;;;;;27.30;24.50;;;13.40;99.90;;;;;;4997253;28;20457;-65
2022/03/18 15:17:45;;;;;;;30.20;25.40;;;13.50;99.90;;;;;;4997366;28;20450;-64
2022/03/18 15:20:12;;;;;;;28.97;25.93;;;13.40;99.90;;;;;;4997208;28;20457;-65
2022/03/18 15:22:39;;;;;;;28.17;25.40;;;13.50;99.90;;;;;;4996898;28;21049;-64
2022/03/18 15:25:07;;;;;;;27.80;24.60;;;13.50;99.90;;;;;;4997250;28;20465;-64
2022/03/18 15:27:34;;;;;;;29.17;24.80;;;13.50;99.90;;;;;;4996960;28;21027;-65
2022/03/18 15:30:02;;;;;;;28.50;25.50;;;13.50;99.90;;;;;;4997081;28;20485;-65
2022/03/18 15:32:30;;;;;;;30.50;27.33;;;13.50;99.90;;;;;;4997090;28;20477;-65
2022/03/18 15:34:57;;;;;;;29.57;26.50;;;13.40;99.90;;;;;;4997391;28;20580;-64
2022/03/18 15:37:23;;;;;;;29.97;26.87;;;13.40;99.90;;;;;;4996925;28;20462;-64
2022/03/18 15:39:51;;;;;;;29.00;26.00;;;13.30;99.90;;;;;;4996638;28;20457;-65
2022/03/18 15:42:18;;;;;;;30.73;25.77;;;13.10;99.90;;;;;;4996958;28;20569;-65
2022/03/18 15:44:46;;;;;;;28.40;25.40;;;13.10;99.90;;;;;;4996830;28;20461;-64
2022/03/18 15:47:14;;;;;;;28.10;25.23;;;13.10;99.90;;;;;;4996683;28;20841;-64
2022/03/18 15:49:42;;;;;;;29.97;25.90;;;13.10;99.90;;;;;;4996953;28;20486;-64
2022/03/18 15:52:11;;;;;;;29.30;26.40;;;13.20;99.90;;;;;;4996477;28;20478;-64
2022/03/18 15:54:39;;;;;;;28.77;25.73;;;13.00;99.90;;;;;;4996539;28;20787;-64
2022/03/18 15:57:06;;;;;;;30.67;27.63;;;12.90;99.90;;;;;;4996704;28;20485;-64
2022/03/18 15:59:33;;;;;;;29.30;26.20;;;12.80;99.90;;;;;;4996505;28;20454;-64
2022/03/18 16:02:00;;;;;;;29.47;26.50;;;12.90;99.90;;;;;;4996362;28;20513;-65
2022/03/18 16:04:28;;;;;;;27.47;24.70;;;12.90;99.90;;;;;;4996340;28;20516;-65
2022/03/18 16:06:58;;;;;;;28.90;25.83;;;12.80;99.90;;;;;;4996298;28;20510;-64
2022/03/18 16:09:31;;;;;;;28.30;25.13;;;12.80;99.90;;;;;;4996519;28;20505;-65
2022/03/18 16:12:01;;;;;;;29.70;26.73;;;12.60;99.90;;;;;;4996385;28;20490;-64
2022/03/18 16:14:29;;;;;;;28.80;25.90;;;12.40;99.90;;;;;;4999694;28;20476;-64
2022/03/18 16:16:56;;;;;;;28.40;25.50;;;12.30;99.90;;;;;;4999711;28;20484;-64
2022/03/18 16:19:23;;;;;;;27.13;23.97;;;12.30;99.90;;;;;;4999923;28;20454;-65
2022/03/18 16:21:50;;;;;;;28.50;25.40;;;12.10;99.90;;;;;;4996072;28;20474;-64
2022/03/18 16:24:18;;;;;;;28.80;25.70;;;12.10;99.90;;;;;;4995776;28;20519;-65
2022/03/18 16:26:55;;;;;;;30.83;26.33;;;12.10;99.90;;;;;;4995859;28;20460;-64
2022/03/18 16:29:22;;;;;;;28.57;24.57;;;12.00;99.90;;;;;;4996106;28;20449;-64
2022/03/18 16:31:50;;;;;;;28.03;25.13;;;12.00;99.90;;;;;;4995522;28;20477;-64
2022/03/18 16:34:17;;;;;;;30.47;27.17;;;12.00;99.90;;;;;;4996076;28;20453;-64
2022/03/18 16:36:43;;;;;;;29.83;25.73;;;12.10;99.90;;;;;;4995984;28;20541;-64
2022/03/18 16:39:10;;;;;;;33.87;25.37;;;12.00;99.90;;;;;;4996321;28;20551;-64
2022/03/18 16:41:38;;;;;;;29.40;26.33;;;11.90;99.90;;;;;;4995709;28;20489;-64
2022/03/18 16:44:07;;;;;;;28.80;25.90;;;11.90;99.90;;;;;;4995729;28;20458;-64
2022/03/18 16:49:24;;;;;;;30.43;27.23;;;11.90;99.90;;;;;;4995370;28;20417;-65
2022/03/18 16:51:52;;;;;;;30.60;27.40;;;11.70;99.90;;;;;;4995461;28;20469;-64
2022/03/18 16:54:19;;;;;;;29.40;25.83;;;11.70;99.90;;;;;;4995269;28;20957;-64
2022/03/18 16:56:47;;;;;;;29.60;26.60;;;11.70;99.90;;;;;;4995497;28;20537;-64
2022/03/18 16:59:14;;;;;;;29.43;26.33;;;11.60;99.90;;;;;;4995417;28;20457;-64
2022/03/18 17:01:47;;;;;;;32.70;26.43;;;11.60;99.90;;;;;;4994868;28;20489;-64
2022/03/18 17:04:15;;;;;;;32.07;26.83;;;11.50;99.90;;;;;;4995304;28;20442;-64
2022/03/18 17:06:42;;;;;;;30.37;27.13;;;11.40;99.90;;;;;;4995183;28;20457;-64
2022/03/18 17:09:09;;;;;;;29.90;26.90;;;11.40;99.90;;;;;;4994701;28;20989;-64
2022/03/18 17:11:35;;;;;;;29.93;26.83;;;11.40;99.90;;;;;;4995042;28;20474;-64
2022/03/18 17:14:07;;;;;;;31.80;27.97;;;11.40;99.90;;;;;;4995028;28;20446;-64
2022/03/18 17:16:34;;;;;;;31.30;28.07;;;11.40;99.90;;;;;;4995136;28;20438;-64
2022/03/18 17:19:01;;;;;;;30.77;27.30;;;11.30;99.90;;;;;;4995005;28;20457;-64
2022/03/18 17:21:29;;;;;;;34.40;27.57;;;11.30;99.90;;;;;;4994873;28;20462;-64
2022/03/18 17:23:56;;;;;;;30.73;27.57;;;11.30;99.90;;;;;;4994890;28;20748;-64
2022/03/18 17:26:23;;;;;;;30.83;26.60;;;11.30;99.90;;;;;;4995047;28;20457;-64
2022/03/18 17:28:50;;;;;;;30.70;27.00;;;11.20;99.90;;;;;;4994935;28;20851;-64
2022/03/18 17:31:18;;;;;;;30.90;27.70;;;11.10;99.90;;;;;;4994406;28;20474;-65
2022/03/18 17:33:45;;;;;;;31.17;27.40;;;11.00;99.90;;;;;;4994450;28;20462;-64
2022/03/18 17:36:13;;;;;;;33.27;28.20;;;10.90;99.90;;;;;;4994748;28;20484;-64
2022/03/18 17:38:40;;;;;;;32.00;28.50;;;10.90;99.90;;;;;;4994727;28;20450;-64
2022/03/18 17:41:08;;;;;;;30.63;27.27;;;10.90;99.90;;;;;;4994805;28;20485;-64
2022/03/18 17:43:35;;;;;;;34.07;29.57;;;10.80;99.90;;;;;;4994787;28;20457;-65
2022/03/18 17:46:06;;;;;;;32.60;29.10;;;10.80;99.90;;;;;;4994686;28;20454;-63
2022/03/18 17:48:35;;;;;;;32.47;29.03;;;10.70;99.90;;;;;;4994446;28;20468;-64
2022/03/18 17:51:02;;;;;;;34.87;28.73;;;10.60;99.90;;;;;;4994364;28;20578;-65
2022/03/18 17:53:29;;;;;;;37.00;30.60;;;10.50;99.90;;;;;;4994126;28;20480;-64
2022/03/18 17:55:57;;;;;;;33.20;29.50;;;10.50;99.90;;;;;;4994212;28;20461;-65
2022/03/18 17:58:24;;;;;;;32.30;28.87;;;10.50;99.90;;;;;;4994491;28;20457;-65
2022/03/18 18:00:51;;;;;;;35.70;30.40;;;10.40;99.90;;;;;;4994218;28;20486;-64
2022/03/18 18:03:18;;;;;;;34.63;30.83;;;10.40;99.90;;;;;;4994386;28;20572;-64
2022/03/18 18:05:46;;;;;;;35.87;29.70;;;10.30;99.90;;;;;;4994407;28;20481;-63